sensor_id;sensor_type;location;lat;lon;timestamp;temperature;humidity
59075;DHT22;44860;53.020;6.738;2023-04-25T00:01:46;7.30;99.90
59075;DHT22;44860;53.020;6.738;2023-04-25T00:04:11;7.30;99.90
59075;DHT22;44860;53.020;6.738;2023-04-25T00:06:37;7.30;99.90
59075;DHT22;44860;53.020;6.738;2023-04-25T00:09:06;7.30;99.90
59075;DHT22;44860;53.020;6.738;2023-04-25T00:11:36;7.30;99.90
59075;DHT22;44860;53.020;6.738;2023-04-25T00:14:03;7.30;99.90
59075;DHT22;44860;53.020;6.738;2023-04-25T00:16:29;7.30;99.90
59075;DHT22;44860;53.020;6.738;2023-04-25T00:18:58;7.30;99.90
59075;DHT22;44860;53.020;6.738;2023-04-25T00:21:24;7.30;99.90
59075;DHT22;44860;53.020;6.738;2023-04-25T00:23:52;7.30;99.90
59075;DHT22;44860;53.020;6.738;2023-04-25T00:26:18;7.30;99.90
59075;DHT22;44860;53.020;6.738;2023-04-25T00:28:43;7.20;99.90
59075;DHT22;44860;53.020;6.738;2023-04-25T00:31:09;7.30;99.90
59075;DHT22;44860;53.020;6.738;2023-04-25T00:33:35;7.20;99.90
59075;DHT22;44860;53.020;6.738;2023-04-25T00:36:01;7.20;99.90
59075;DHT22;44860;53.020;6.738;2023-04-25T00:38:27;7.20;99.90
59075;DHT22;44860;53.020;6.738;2023-04-25T00:40:52;7.20;99.90
59075;DHT22;44860;53.020;6.738;2023-04-25T00:43:18;7.20;99.90
59075;DHT22;44860;53.020;6.738;2023-04-25T00:45:47;7.20;99.90
59075;DHT22;44860;53.020;6.738;2023-04-25T00:48:17;7.20;99.90
59075;DHT22;44860;53.020;6.738;2023-04-25T00:50:52;7.20;99.90
59075;DHT22;44860;53.020;6.738;2023-04-25T00:53:23;7.20;99.90
59075;DHT22;44860;53.020;6.738;2023-04-25T00:55:49;7.10;99.90
59075;DHT22;44860;53.020;6.738;2023-04-25T00:58:20;7.10;99.90
59075;DHT22;44860;53.020;6.738;2023-04-25T01:00:47;7.10;99.90
59075;DHT22;44860;53.020;6.738;2023-04-25T01:03:14;7.10;99.90
59075;DHT22;44860;53.020;6.738;2023-04-25T01:05:42;7.10;99.90
59075;DHT22;44860;53.020;6.738;2023-04-25T01:08:08;7.10;99.90
59075;DHT22;44860;53.020;6.738;2023-04-25T01:10:34;7.10;99.90
59075;DHT22;44860;53.020;6.738;2023-04-25T01:12:59;7.10;99.90
59075;DHT22;44860;53.020;6.738;2023-04-25T01:15:25;7.00;99.90
59075;DHT22;44860;53.020;6.738;2023-04-25T01:17:54;7.00;99.90
59075;DHT22;44860;53.020;6.738;2023-04-25T01:20:24;7.00;99.90
59075;DHT22;44860;53.020;6.738;2023-04-25T01:22:51;7.00;99.90
59075;DHT22;44860;53.020;6.738;2023-04-25T01:25:19;7.00;99.90
59075;DHT22;44860;53.020;6.738;2023-04-25T01:27:45;7.00;99.90
59075;DHT22;44860;53.020;6.738;2023-04-25T01:30:13;7.00;99.90
59075;DHT22;44860;53.020;6.738;2023-04-25T01:32:41;7.00;99.90
59075;DHT22;44860;53.020;6.738;2023-04-25T01:35:09;7.00;99.90
59075;DHT22;44860;53.020;6.738;2023-04-25T01:37:39;7.00;99.90
59075;DHT22;44860;53.020;6.738;2023-04-25T01:40:06;6.90;99.90
59075;DHT22;44860;53.020;6.738;2023-04-25T01:42:34;6.90;99.90
59075;DHT22;44860;53.020;6.738;2023-04-25T01:45:00;6.90;99.90
59075;DHT22;44860;53.020;6.738;2023-04-25T01:47:25;6.90;99.90
59075;DHT22;44860;53.020;6.738;2023-04-25T01:49:51;6.90;99.90
59075;DHT22;44860;53.020;6.738;2023-04-25T01:52:17;6.80;99.90
59075;DHT22;44860;53.020;6.738;2023-04-25T01:54:42;6.80;99.90
59075;DHT22;44860;53.020;6.738;2023-04-25T01:57:13;6.80;99.90
59075;DHT22;44860;53.020;6.738;2023-04-25T01:59:39;6.80;99.90
59075;DHT22;44860;53.020;6.738;2023-04-25T02:02:06;6.80;99.90
59075;DHT22;44860;53.020;6.738;2023-04-25T02:04:32;6.80;99.90
59075;DHT22;44860;53.020;6.738;2023-04-25T02:06:58;6.80;99.90
59075;DHT22;44860;53.020;6.738;2023-04-25T02:09:23;6.80;99.90
59075;DHT22;44860;53.020;6.738;2023-04-25T02:11:49;6.80;99.90
59075;DHT22;44860;53.020;6.738;2023-04-25T02:14:15;6.80;99.90
59075;DHT22;44860;53.020;6.738;2023-04-25T02:16:41;6.70;99.90
59075;DHT22;44860;53.020;6.738;2023-04-25T02:19:10;6.70;99.90
59075;DHT22;44860;53.020;6.738;2023-04-25T02:21:36;6.70;99.90
59075;DHT22;44860;53.020;6.738;2023-04-25T02:24:02;6.70;99.90
59075;DHT22;44860;53.020;6.738;2023-04-25T02:26:28;6.60;99.90
59075;DHT22;44860;53.020;6.738;2023-04-25T02:28:54;6.70;99.90
59075;DHT22;44860;53.020;6.738;2023-04-25T02:31:20;6.60;99.90
59075;DHT22;44860;53.020;6.738;2023-04-25T02:33:46;6.60;99.90
59075;DHT22;44860;53.020;6.738;2023-04-25T02:36:11;6.60;99.90
59075;DHT22;44860;53.020;6.738;2023-04-25T02:38:37;6.60;99.90
59075;DHT22;44860;53.020;6.738;2023-04-25T02:41:03;6.60;99.90
59075;DHT22;44860;53.020;6.738;2023-04-25T02:43:28;6.60;99.90
59075;DHT22;44860;53.020;6.738;2023-04-25T02:45:54;6.60;99.90
59075;DHT22;44860;53.020;6.738;2023-04-25T02:48:19;6.60;99.90
59075;DHT22;44860;53.020;6.738;2023-04-25T02:50:45;6.60;99.90
59075;DHT22;44860;53.020;6.738;2023-04-25T02:53:11;6.60;99.90
59075;DHT22;44860;53.020;6.738;2023-04-25T02:55:37;6.50;99.90
59075;DHT22;44860;53.020;6.738;2023-04-25T02:58:04;6.60;99.90
59075;DHT22;44860;53.020;6.738;2023-04-25T03:00:29;6.50;99.90
59075;DHT22;44860;53.020;6.738;2023-04-25T03:02:55;6.50;99.90
59075;DHT22;44860;53.020;6.738;2023-04-25T03:05:21;6.50;99.90
59075;DHT22;44860;53.020;6.738;2023-04-25T03:07:47;6.50;99.90
59075;DHT22;44860;53.020;6.738;2023-04-25T03:10:12;6.50;99.90
59075;DHT22;44860;53.020;6.738;2023-04-25T03:12:38;6.50;99.90
59075;DHT22;44860;53.020;6.738;2023-04-25T03:15:04;6.40;99.90
59075;DHT22;44860;53.020;6.738;2023-04-25T03:17:30;6.50;99.90
59075;DHT22;44860;53.020;6.738;2023-04-25T03:19:57;6.50;99.90
59075;DHT22;44860;53.020;6.738;2023-04-25T03:22:23;6.40;99.90
59075;DHT22;44860;53.020;6.738;2023-04-25T03:24:50;6.50;99.90
59075;DHT22;44860;53.020;6.738;2023-04-25T03:27:16;6.40;99.90
59075;DHT22;44860;53.020;6.738;2023-04-25T03:29:42;6.40;99.90
59075;DHT22;44860;53.020;6.738;2023-04-25T03:32:07;6.40;99.90
59075;DHT22;44860;53.020;6.738;2023-04-25T03:34:33;6.40;99.90
59075;DHT22;44860;53.020;6.738;2023-04-25T03:36:59;6.40;99.90
59075;DHT22;44860;53.020;6.738;2023-04-25T03:39:25;6.40;99.90
59075;DHT22;44860;53.020;6.738;2023-04-25T03:41:51;6.40;99.90
59075;DHT22;44860;53.020;6.738;2023-04-25T03:44:16;6.30;99.90
59075;DHT22;44860;53.020;6.738;2023-04-25T03:46:42;6.30;99.90
59075;DHT22;44860;53.020;6.738;2023-04-25T03:49:08;6.40;99.90
59075;DHT22;44860;53.020;6.738;2023-04-25T03:51:33;6.30;99.90
59075;DHT22;44860;53.020;6.738;2023-04-25T03:53:59;6.30;99.90
59075;DHT22;44860;53.020;6.738;2023-04-25T03:56:25;6.30;99.90
59075;DHT22;44860;53.020;6.738;2023-04-25T03:58:50;6.30;99.90
59075;DHT22;44860;53.020;6.738;2023-04-25T04:01:16;6.30;99.90
59075;DHT22;44860;53.020;6.738;2023-04-25T04:03:42;6.30;99.90
59075;DHT22;44860;53.020;6.738;2023-04-25T04:06:07;6.30;99.90
59075;DHT22;44860;53.020;6.738;2023-04-25T04:08:34;6.30;99.90
59075;DHT22;44860;53.020;6.738;2023-04-25T04:11:00;6.30;99.90
59075;DHT22;44860;53.020;6.738;2023-04-25T04:13:29;6.30;99.90
59075;DHT22;44860;53.020;6.738;2023-04-25T04:15:55;6.30;99.90
59075;DHT22;44860;53.020;6.738;2023-04-25T04:18:21;6.30;99.90
59075;DHT22;44860;53.020;6.738;2023-04-25T04:20:47;6.30;99.90
59075;DHT22;44860;53.020;6.738;2023-04-25T04:23:12;6.20;99.90
59075;DHT22;44860;53.020;6.738;2023-04-25T04:25:38;6.20;99.90
59075;DHT22;44860;53.020;6.738;2023-04-25T04:28:05;6.20;99.90
59075;DHT22;44860;53.020;6.738;2023-04-25T04:30:31;6.20;99.90
59075;DHT22;44860;53.020;6.738;2023-04-25T04:32:58;6.20;99.90
59075;DHT22;44860;53.020;6.738;2023-04-25T04:35:24;6.20;99.90
59075;DHT22;44860;53.020;6.738;2023-04-25T04:37:50;6.10;99.90
59075;DHT22;44860;53.020;6.738;2023-04-25T04:40:17;6.10;99.90
59075;DHT22;44860;53.020;6.738;2023-04-25T04:42:44;6.10;99.90
59075;DHT22;44860;53.020;6.738;2023-04-25T04:45:13;6.10;99.90
59075;DHT22;44860;53.020;6.738;2023-04-25T04:47:40;6.10;99.90
59075;DHT22;44860;53.020;6.738;2023-04-25T04:50:09;6.10;99.90
59075;DHT22;44860;53.020;6.738;2023-04-25T04:52:36;6.10;99.90
59075;DHT22;44860;53.020;6.738;2023-04-25T04:55:03;6.00;99.90
59075;DHT22;44860;53.020;6.738;2023-04-25T04:57:29;6.00;99.90
59075;DHT22;44860;53.020;6.738;2023-04-25T04:59:56;6.00;99.90
59075;DHT22;44860;53.020;6.738;2023-04-25T05:02:22;6.00;99.90
59075;DHT22;44860;53.020;6.738;2023-04-25T05:04:48;6.00;99.90
59075;DHT22;44860;53.020;6.738;2023-04-25T05:07:13;6.00;99.90
59075;DHT22;44860;53.020;6.738;2023-04-25T05:09:39;6.00;99.90
59075;DHT22;44860;53.020;6.738;2023-04-25T05:12:05;6.00;99.90
59075;DHT22;44860;53.020;6.738;2023-04-25T05:14:31;6.00;99.90
59075;DHT22;44860;53.020;6.738;2023-04-25T05:16:56;6.00;99.90
59075;DHT22;44860;53.020;6.738;2023-04-25T05:19:22;5.90;99.90
59075;DHT22;44860;53.020;6.738;2023-04-25T05:21:48;5.90;99.90
59075;DHT22;44860;53.020;6.738;2023-04-25T05:24:14;5.90;99.90
59075;DHT22;44860;53.020;6.738;2023-04-25T05:26:40;5.90;99.90
59075;DHT22;44860;53.020;6.738;2023-04-25T05:29:06;5.90;99.90
59075;DHT22;44860;53.020;6.738;2023-04-25T05:31:32;5.90;99.90
59075;DHT22;44860;53.020;6.738;2023-04-25T05:33:58;5.90;99.90
59075;DHT22;44860;53.020;6.738;2023-04-25T05:36:23;5.90;99.90
59075;DHT22;44860;53.020;6.738;2023-04-25T05:38:49;5.90;99.90
59075;DHT22;44860;53.020;6.738;2023-04-25T05:41:15;5.90;99.90
59075;DHT22;44860;53.020;6.738;2023-04-25T05:43:40;5.90;99.90
59075;DHT22;44860;53.020;6.738;2023-04-25T05:46:11;5.90;99.90
59075;DHT22;44860;53.020;6.738;2023-04-25T05:48:37;5.90;99.90
59075;DHT22;44860;53.020;6.738;2023-04-25T05:51:03;5.90;99.90
59075;DHT22;44860;53.020;6.738;2023-04-25T05:53:29;5.90;99.90
59075;DHT22;44860;53.020;6.738;2023-04-25T05:55:54;5.90;99.90
59075;DHT22;44860;53.020;6.738;2023-04-25T05:58:20;5.90;99.90
59075;DHT22;44860;53.020;6.738;2023-04-25T06:00:46;5.90;99.90
59075;DHT22;44860;53.020;6.738;2023-04-25T06:03:12;5.90;99.90
59075;DHT22;44860;53.020;6.738;2023-04-25T06:05:41;5.90;99.90
59075;DHT22;44860;53.020;6.738;2023-04-25T06:08:07;6.00;99.90
59075;DHT22;44860;53.020;6.738;2023-04-25T06:10:32;6.00;99.90
59075;DHT22;44860;53.020;6.738;2023-04-25T06:12:58;6.00;99.90
59075;DHT22;44860;53.020;6.738;2023-04-25T06:15:23;6.00;99.90
59075;DHT22;44860;53.020;6.738;2023-04-25T06:17:49;6.10;99.90
59075;DHT22;44860;53.020;6.738;2023-04-25T06:20:15;6.10;99.90
59075;DHT22;44860;53.020;6.738;2023-04-25T06:22:41;6.20;99.90
59075;DHT22;44860;53.020;6.738;2023-04-25T06:25:07;6.20;99.90
59075;DHT22;44860;53.020;6.738;2023-04-25T06:27:33;6.20;99.90
59075;DHT22;44860;53.020;6.738;2023-04-25T06:29:59;6.20;99.90
59075;DHT22;44860;53.020;6.738;2023-04-25T06:32:25;6.30;99.90
59075;DHT22;44860;53.020;6.738;2023-04-25T06:34:53;6.30;99.90
59075;DHT22;44860;53.020;6.738;2023-04-25T06:37:18;6.30;99.90
59075;DHT22;44860;53.020;6.738;2023-04-25T06:39:44;6.40;99.90
59075;DHT22;44860;53.020;6.738;2023-04-25T06:42:10;6.40;99.90
59075;DHT22;44860;53.020;6.738;2023-04-25T06:44:36;6.40;99.90
59075;DHT22;44860;53.020;6.738;2023-04-25T06:47:01;6.40;99.90
59075;DHT22;44860;53.020;6.738;2023-04-25T06:49:27;6.50;99.90
59075;DHT22;44860;53.020;6.738;2023-04-25T06:51:53;6.50;99.90
59075;DHT22;44860;53.020;6.738;2023-04-25T06:54:18;6.60;99.90
59075;DHT22;44860;53.020;6.738;2023-04-25T06:56:44;6.60;99.90
59075;DHT22;44860;53.020;6.738;2023-04-25T06:59:09;6.70;99.90
59075;DHT22;44860;53.020;6.738;2023-04-25T07:01:35;6.80;99.90
59075;DHT22;44860;53.020;6.738;2023-04-25T07:04:01;6.80;99.90
59075;DHT22;44860;53.020;6.738;2023-04-25T07:06:26;6.90;99.90
59075;DHT22;44860;53.020;6.738;2023-04-25T07:08:53;6.90;99.90
59075;DHT22;44860;53.020;6.738;2023-04-25T07:11:19;6.90;99.90
59075;DHT22;44860;53.020;6.738;2023-04-25T07:13:45;7.00;99.90
59075;DHT22;44860;53.020;6.738;2023-04-25T07:16:10;7.00;99.90
59075;DHT22;44860;53.020;6.738;2023-04-25T07:18:36;7.00;99.90
59075;DHT22;44860;53.020;6.738;2023-04-25T07:21:02;7.10;99.90
59075;DHT22;44860;53.020;6.738;2023-04-25T07:23:27;7.20;99.90
59075;DHT22;44860;53.020;6.738;2023-04-25T07:25:53;7.20;99.90
59075;DHT22;44860;53.020;6.738;2023-04-25T07:28:19;7.30;99.90
59075;DHT22;44860;53.020;6.738;2023-04-25T07:30:44;7.30;99.90
59075;DHT22;44860;53.020;6.738;2023-04-25T07:33:10;7.30;99.90
59075;DHT22;44860;53.020;6.738;2023-04-25T07:35:36;7.30;99.90
59075;DHT22;44860;53.020;6.738;2023-04-25T07:38:02;7.20;99.90
59075;DHT22;44860;53.020;6.738;2023-04-25T07:40:28;7.20;99.90
59075;DHT22;44860;53.020;6.738;2023-04-25T07:42:54;7.30;99.90
59075;DHT22;44860;53.020;6.738;2023-04-25T07:45:19;7.30;99.90
59075;DHT22;44860;53.020;6.738;2023-04-25T07:47:45;7.40;99.90
59075;DHT22;44860;53.020;6.738;2023-04-25T07:50:11;7.40;99.90
59075;DHT22;44860;53.020;6.738;2023-04-25T07:52:36;7.50;99.90
59075;DHT22;44860;53.020;6.738;2023-04-25T07:55:02;7.60;99.90
59075;DHT22;44860;53.020;6.738;2023-04-25T07:57:29;7.60;99.90
59075;DHT22;44860;53.020;6.738;2023-04-25T07:59:55;7.60;99.90
59075;DHT22;44860;53.020;6.738;2023-04-25T08:02:20;7.60;99.90
59075;DHT22;44860;53.020;6.738;2023-04-25T08:04:46;7.60;99.90
59075;DHT22;44860;53.020;6.738;2023-04-25T08:07:12;7.70;99.90
59075;DHT22;44860;53.020;6.738;2023-04-25T08:09:37;7.70;99.90
59075;DHT22;44860;53.020;6.738;2023-04-25T08:12:03;7.70;99.90
59075;DHT22;44860;53.020;6.738;2023-04-25T08:14:30;7.70;99.90
59075;DHT22;44860;53.020;6.738;2023-04-25T08:17:03;7.70;99.90
59075;DHT22;44860;53.020;6.738;2023-04-25T08:19:30;7.70;99.90
59075;DHT22;44860;53.020;6.738;2023-04-25T08:21:56;7.70;99.90
59075;DHT22;44860;53.020;6.738;2023-04-25T08:24:22;7.70;99.90
59075;DHT22;44860;53.020;6.738;2023-04-25T08:26:48;7.70;99.90
59075;DHT22;44860;53.020;6.738;2023-04-25T08:29:14;7.80;99.90
59075;DHT22;44860;53.020;6.738;2023-04-25T08:31:39;7.80;99.90
59075;DHT22;44860;53.020;6.738;2023-04-25T08:34:05;7.80;99.90
59075;DHT22;44860;53.020;6.738;2023-04-25T08:36:31;7.90;99.90
59075;DHT22;44860;53.020;6.738;2023-04-25T08:38:58;8.00;99.90
59075;DHT22;44860;53.020;6.738;2023-04-25T08:41:24;8.00;99.90
59075;DHT22;44860;53.020;6.738;2023-04-25T08:43:49;8.00;99.90
59075;DHT22;44860;53.020;6.738;2023-04-25T08:46:18;8.00;99.90
59075;DHT22;44860;53.020;6.738;2023-04-25T08:48:45;8.10;99.90
59075;DHT22;44860;53.020;6.738;2023-04-25T08:51:21;8.20;99.90
59075;DHT22;44860;53.020;6.738;2023-04-25T08:53:51;8.20;99.90
59075;DHT22;44860;53.020;6.738;2023-04-25T08:56:17;8.00;99.90
59075;DHT22;44860;53.020;6.738;2023-04-25T08:58:51;7.90;99.90
59075;DHT22;44860;53.020;6.738;2023-04-25T09:01:17;7.70;99.90
59075;DHT22;44860;53.020;6.738;2023-04-25T09:03:44;7.70;99.90
59075;DHT22;44860;53.020;6.738;2023-04-25T09:06:11;7.60;99.90
59075;DHT22;44860;53.020;6.738;2023-04-25T09:08:37;7.50;99.90
59075;DHT22;44860;53.020;6.738;2023-04-25T09:11:06;7.50;99.90
59075;DHT22;44860;53.020;6.738;2023-04-25T09:13:31;7.50;99.90
59075;DHT22;44860;53.020;6.738;2023-04-25T09:15:58;7.50;99.90
59075;DHT22;44860;53.020;6.738;2023-04-25T09:18:28;7.50;99.90
59075;DHT22;44860;53.020;6.738;2023-04-25T09:20:55;7.60;99.90
59075;DHT22;44860;53.020;6.738;2023-04-25T09:23:22;7.60;99.90
59075;DHT22;44860;53.020;6.738;2023-04-25T09:25:50;7.60;99.90
59075;DHT22;44860;53.020;6.738;2023-04-25T09:28:16;7.60;99.90
59075;DHT22;44860;53.020;6.738;2023-04-25T09:30:42;7.60;99.90
59075;DHT22;44860;53.020;6.738;2023-04-25T09:33:09;7.60;99.90
59075;DHT22;44860;53.020;6.738;2023-04-25T09:35:44;7.70;99.90
59075;DHT22;44860;53.020;6.738;2023-04-25T09:38:14;7.70;99.90
59075;DHT22;44860;53.020;6.738;2023-04-25T09:40:51;7.80;99.90
59075;DHT22;44860;53.020;6.738;2023-04-25T09:43:22;7.80;99.90
59075;DHT22;44860;53.020;6.738;2023-04-25T09:45:48;7.90;99.90
59075;DHT22;44860;53.020;6.738;2023-04-25T09:48:18;7.90;99.90
59075;DHT22;44860;53.020;6.738;2023-04-25T09:50:44;8.00;99.90
59075;DHT22;44860;53.020;6.738;2023-04-25T09:53:10;8.10;99.90
59075;DHT22;44860;53.020;6.738;2023-04-25T09:55:36;8.20;99.90
59075;DHT22;44860;53.020;6.738;2023-04-25T09:58:05;8.40;99.90
59075;DHT22;44860;53.020;6.738;2023-04-25T10:00:34;8.50;99.90
59075;DHT22;44860;53.020;6.738;2023-04-25T10:03:05;8.60;99.90
59075;DHT22;44860;53.020;6.738;2023-04-25T10:05:32;8.60;99.90
59075;DHT22;44860;53.020;6.738;2023-04-25T10:08:03;8.70;99.90
59075;DHT22;44860;53.020;6.738;2023-04-25T10:10:32;8.50;99.90
59075;DHT22;44860;53.020;6.738;2023-04-25T10:13:03;8.20;99.90
59075;DHT22;44860;53.020;6.738;2023-04-25T10:15:29;7.90;99.90
59075;DHT22;44860;53.020;6.738;2023-04-25T10:17:56;7.70;99.90
59075;DHT22;44860;53.020;6.738;2023-04-25T10:20:22;7.60;99.90
59075;DHT22;44860;53.020;6.738;2023-04-25T10:22:48;7.50;99.90
59075;DHT22;44860;53.020;6.738;2023-04-25T10:25:19;7.50;99.90
59075;DHT22;44860;53.020;6.738;2023-04-25T10:27:45;7.50;99.90
59075;DHT22;44860;53.020;6.738;2023-04-25T10:30:14;7.60;99.90
59075;DHT22;44860;53.020;6.738;2023-04-25T10:32:44;7.70;99.90
59075;DHT22;44860;53.020;6.738;2023-04-25T10:35:17;7.80;99.90
59075;DHT22;44860;53.020;6.738;2023-04-25T10:40:24;8.10;99.90
59075;DHT22;44860;53.020;6.738;2023-04-25T10:42:52;8.20;99.90
59075;DHT22;44860;53.020;6.738;2023-04-25T10:45:20;8.30;99.90
59075;DHT22;44860;53.020;6.738;2023-04-25T10:47:46;8.40;99.90
59075;DHT22;44860;53.020;6.738;2023-04-25T10:50:14;8.60;99.90
59075;DHT22;44860;53.020;6.738;2023-04-25T10:52:41;8.70;99.90
59075;DHT22;44860;53.020;6.738;2023-04-25T10:55:07;8.70;99.90
59075;DHT22;44860;53.020;6.738;2023-04-25T10:57:41;8.70;99.90
59075;DHT22;44860;53.020;6.738;2023-04-25T11:00:18;8.70;99.90
59075;DHT22;44860;53.020;6.738;2023-04-25T11:02:57;8.80;99.90
59075;DHT22;44860;53.020;6.738;2023-04-25T11:05:30;8.80;99.90
59075;DHT22;44860;53.020;6.738;2023-04-25T11:07:57;8.90;99.90
59075;DHT22;44860;53.020;6.738;2023-04-25T11:10:27;8.90;99.90
59075;DHT22;44860;53.020;6.738;2023-04-25T11:12:54;8.90;99.90
59075;DHT22;44860;53.020;6.738;2023-04-25T11:15:19;8.90;99.90
59075;DHT22;44860;53.020;6.738;2023-04-25T11:17:45;8.90;99.90
59075;DHT22;44860;53.020;6.738;2023-04-25T11:20:12;8.90;99.90
59075;DHT22;44860;53.020;6.738;2023-04-25T11:22:39;8.90;99.90
59075;DHT22;44860;53.020;6.738;2023-04-25T11:25:09;8.80;99.90
59075;DHT22;44860;53.020;6.738;2023-04-25T11:27:49;8.80;99.90
59075;DHT22;44860;53.020;6.738;2023-04-25T11:30:17;8.70;99.90
59075;DHT22;44860;53.020;6.738;2023-04-25T11:32:43;8.70;99.90
59075;DHT22;44860;53.020;6.738;2023-04-25T11:35:10;8.70;99.90
59075;DHT22;44860;53.020;6.738;2023-04-25T11:37:37;8.60;99.90
59075;DHT22;44860;53.020;6.738;2023-04-25T11:40:04;8.60;99.90
59075;DHT22;44860;53.020;6.738;2023-04-25T11:42:32;8.50;99.90
59075;DHT22;44860;53.020;6.738;2023-04-25T11:44:59;8.50;99.90
59075;DHT22;44860;53.020;6.738;2023-04-25T11:47:32;8.50;99.90
59075;DHT22;44860;53.020;6.738;2023-04-25T11:49:59;8.60;99.90
59075;DHT22;44860;53.020;6.738;2023-04-25T11:52:41;8.60;99.90
59075;DHT22;44860;53.020;6.738;2023-04-25T11:55:15;8.70;99.90
59075;DHT22;44860;53.020;6.738;2023-04-25T11:57:42;8.70;99.90
59075;DHT22;44860;53.020;6.738;2023-04-25T12:00:19;8.90;99.90
59075;DHT22;44860;53.020;6.738;2023-04-25T12:02:47;9.00;99.90
59075;DHT22;44860;53.020;6.738;2023-04-25T12:05:15;9.10;99.90
59075;DHT22;44860;53.020;6.738;2023-04-25T12:07:43;9.20;99.90
59075;DHT22;44860;53.020;6.738;2023-04-25T12:10:11;9.30;99.90
59075;DHT22;44860;53.020;6.738;2023-04-25T12:12:38;9.40;99.90
59075;DHT22;44860;53.020;6.738;2023-04-25T12:15:18;9.50;99.90
59075;DHT22;44860;53.020;6.738;2023-04-25T12:17:48;9.50;99.90
59075;DHT22;44860;53.020;6.738;2023-04-25T12:20:24;9.60;99.90
59075;DHT22;44860;53.020;6.738;2023-04-25T12:22:51;9.70;99.90
59075;DHT22;44860;53.020;6.738;2023-04-25T12:25:39;9.80;99.90
59075;DHT22;44860;53.020;6.738;2023-04-25T12:28:18;9.80;99.90
59075;DHT22;44860;53.020;6.738;2023-04-25T12:33:19;9.90;96.80
59075;DHT22;44860;53.020;6.738;2023-04-25T12:35:44;10.00;98.10
59075;DHT22;44860;53.020;6.738;2023-04-25T12:38:11;10.10;98.90
59075;DHT22;44860;53.020;6.738;2023-04-25T12:40:36;10.20;99.20
59075;DHT22;44860;53.020;6.738;2023-04-25T12:43:02;10.30;99.60
59075;DHT22;44860;53.020;6.738;2023-04-25T12:45:27;10.30;98.90
59075;DHT22;44860;53.020;6.738;2023-04-25T12:47:53;10.30;99.70
59075;DHT22;44860;53.020;6.738;2023-04-25T12:50:19;10.20;99.90
59075;DHT22;44860;53.020;6.738;2023-04-25T12:52:44;10.10;99.90
59075;DHT22;44860;53.020;6.738;2023-04-25T12:55:10;10.00;99.90
59075;DHT22;44860;53.020;6.738;2023-04-25T12:57:36;10.00;99.90
59075;DHT22;44860;53.020;6.738;2023-04-25T13:00:01;9.90;99.90
59075;DHT22;44860;53.020;6.738;2023-04-25T13:02:29;9.90;99.90
59075;DHT22;44860;53.020;6.738;2023-04-25T13:04:55;9.80;99.90
59075;DHT22;44860;53.020;6.738;2023-04-25T13:07:20;9.70;99.90
59075;DHT22;44860;53.020;6.738;2023-04-25T13:09:46;9.60;99.80
59075;DHT22;44860;53.020;6.738;2023-04-25T13:12:12;9.50;99.90
59075;DHT22;44860;53.020;6.738;2023-04-25T13:14:37;9.40;99.90
59075;DHT22;44860;53.020;6.738;2023-04-25T13:17:03;9.40;99.90
59075;DHT22;44860;53.020;6.738;2023-04-25T13:19:28;9.40;99.90
59075;DHT22;44860;53.020;6.738;2023-04-25T13:21:54;9.40;99.90
59075;DHT22;44860;53.020;6.738;2023-04-25T13:24:20;9.40;99.90
59075;DHT22;44860;53.020;6.738;2023-04-25T13:26:45;9.50;99.90
59075;DHT22;44860;53.020;6.738;2023-04-25T13:29:11;9.60;97.20
59075;DHT22;44860;53.020;6.738;2023-04-25T13:31:37;9.80;94.40
59075;DHT22;44860;53.020;6.738;2023-04-25T13:34:02;9.90;94.40
59075;DHT22;44860;53.020;6.738;2023-04-25T13:36:29;10.00;94.10
59075;DHT22;44860;53.020;6.738;2023-04-25T13:38:54;10.10;94.90
59075;DHT22;44860;53.020;6.738;2023-04-25T13:41:20;10.20;94.20
59075;DHT22;44860;53.020;6.738;2023-04-25T13:43:46;10.10;92.30
59075;DHT22;44860;53.020;6.738;2023-04-25T13:46:12;10.00;92.50
59075;DHT22;44860;53.020;6.738;2023-04-25T13:48:40;10.00;92.40
59075;DHT22;44860;53.020;6.738;2023-04-25T13:51:11;9.90;93.90
59075;DHT22;44860;53.020;6.738;2023-04-25T13:53:37;9.90;95.50
59075;DHT22;44860;53.020;6.738;2023-04-25T13:56:03;9.90;97.20
59075;DHT22;44860;53.020;6.738;2023-04-25T13:58:30;9.90;97.70
59075;DHT22;44860;53.020;6.738;2023-04-25T14:00:56;10.00;99.10
59075;DHT22;44860;53.020;6.738;2023-04-25T14:03:21;10.10;99.90
59075;DHT22;44860;53.020;6.738;2023-04-25T14:05:47;10.10;99.90
59075;DHT22;44860;53.020;6.738;2023-04-25T14:08:12;10.20;99.90
59075;DHT22;44860;53.020;6.738;2023-04-25T14:10:38;10.30;97.90
59075;DHT22;44860;53.020;6.738;2023-04-25T14:13:04;10.20;97.70
59075;DHT22;44860;53.020;6.738;2023-04-25T14:15:34;10.10;97.50
59075;DHT22;44860;53.020;6.738;2023-04-25T14:18:00;10.00;94.30
59075;DHT22;44860;53.020;6.738;2023-04-25T14:20:26;9.90;94.90
59075;DHT22;44860;53.020;6.738;2023-04-25T14:22:52;9.80;96.60
59075;DHT22;44860;53.020;6.738;2023-04-25T14:25:20;9.70;98.30
59075;DHT22;44860;53.020;6.738;2023-04-25T14:27:45;9.60;99.30
59075;DHT22;44860;53.020;6.738;2023-04-25T14:30:19;9.50;99.90
59075;DHT22;44860;53.020;6.738;2023-04-25T14:32:45;9.50;99.90
59075;DHT22;44860;53.020;6.738;2023-04-25T14:35:11;9.40;99.90
59075;DHT22;44860;53.020;6.738;2023-04-25T14:37:37;9.40;99.90
59075;DHT22;44860;53.020;6.738;2023-04-25T14:40:03;9.40;99.90
59075;DHT22;44860;53.020;6.738;2023-04-25T14:42:28;9.40;99.90
59075;DHT22;44860;53.020;6.738;2023-04-25T14:44:54;9.50;99.90
59075;DHT22;44860;53.020;6.738;2023-04-25T14:47:20;9.60;99.90
59075;DHT22;44860;53.020;6.738;2023-04-25T14:49:45;9.80;99.90
59075;DHT22;44860;53.020;6.738;2023-04-25T14:52:16;9.90;99.90
59075;DHT22;44860;53.020;6.738;2023-04-25T14:54:42;10.00;99.50
59075;DHT22;44860;53.020;6.738;2023-04-25T14:57:07;10.00;98.10
59075;DHT22;44860;53.020;6.738;2023-04-25T14:59:33;9.90;95.60
59075;DHT22;44860;53.020;6.738;2023-04-25T15:01:59;9.90;95.20
59075;DHT22;44860;53.020;6.738;2023-04-25T15:04:24;9.90;94.90
59075;DHT22;44860;53.020;6.738;2023-04-25T15:06:50;9.90;95.30
59075;DHT22;44860;53.020;6.738;2023-04-25T15:09:15;9.90;94.70
59075;DHT22;44860;53.020;6.738;2023-04-25T15:11:42;9.90;95.30
59075;DHT22;44860;53.020;6.738;2023-04-25T15:14:07;10.00;94.70
59075;DHT22;44860;53.020;6.738;2023-04-25T15:16:33;10.10;94.30
59075;DHT22;44860;53.020;6.738;2023-04-25T15:18:59;10.30;95.30
59075;DHT22;44860;53.020;6.738;2023-04-25T15:21:24;10.30;95.00
59075;DHT22;44860;53.020;6.738;2023-04-25T15:23:51;10.30;93.40
59075;DHT22;44860;53.020;6.738;2023-04-25T15:26:17;10.30;92.60
59075;DHT22;44860;53.020;6.738;2023-04-25T15:28:43;10.20;92.40
59075;DHT22;44860;53.020;6.738;2023-04-25T15:31:09;10.10;93.00
59075;DHT22;44860;53.020;6.738;2023-04-25T15:33:34;10.00;94.00
59075;DHT22;44860;53.020;6.738;2023-04-25T15:36:00;9.80;96.00
59075;DHT22;44860;53.020;6.738;2023-04-25T15:38:28;9.70;98.80
59075;DHT22;44860;53.020;6.738;2023-04-25T15:40:54;9.60;99.40
59075;DHT22;44860;53.020;6.738;2023-04-25T15:43:19;9.50;99.90
59075;DHT22;44860;53.020;6.738;2023-04-25T15:45:45;9.50;99.90
59075;DHT22;44860;53.020;6.738;2023-04-25T15:48:10;9.40;99.90